createdAt,value
2022-12-13T00:00:24.737Z,4.00
2022-12-13T00:01:25.223Z,4.00
2022-12-13T00:02:24.635Z,4.00
2022-12-13T00:03:24.626Z,4.00
2022-12-13T00:04:24.709Z,4.00
2022-12-13T00:05:24.577Z,4.00
2022-12-13T00:06:24.579Z,4.00
2022-12-13T00:07:24.586Z,4.00
2022-12-13T00:08:24.794Z,4.00
2022-12-13T00:09:24.695Z,0.00
2022-12-13T00:10:25.170Z,0.00
2022-12-13T00:11:24.520Z,0.00
2022-12-13T00:12:24.476Z,0.00
2022-12-13T00:13:24.518Z,0.00
2022-12-13T00:14:24.587Z,0.00
2022-12-13T00:15:24.514Z,0.00
2022-12-13T00:16:24.538Z,0.00
2022-12-13T00:17:24.422Z,0.00
2022-12-13T00:18:24.377Z,0.00
2022-12-13T00:19:24.451Z,0.00
2022-12-13T00:20:24.549Z,0.00
2022-12-13T00:21:24.424Z,0.00
2022-12-13T00:22:24.356Z,0.00
2022-12-13T00:23:24.354Z,0.00
2022-12-13T00:24:24.348Z,0.00
2022-12-13T00:25:24.297Z,0.00
2022-12-13T00:26:24.363Z,0.00
2022-12-13T00:27:25.020Z,0.00
2022-12-13T00:28:24.282Z,0.00
2022-12-13T00:29:24.257Z,0.00
2022-12-13T00:30:24.294Z,0.00
2022-12-13T00:32:25.882Z,0.00
2022-12-13T00:33:24.185Z,0.00
2022-12-13T00:34:24.228Z,0.00
2022-12-13T00:35:24.200Z,0.00
2022-12-13T00:36:24.165Z,0.00
2022-12-13T00:37:24.106Z,0.00
2022-12-13T00:38:24.166Z,0.00
2022-12-13T00:39:24.255Z,0.00
2022-12-13T00:40:24.158Z,0.00
2022-12-13T00:41:24.388Z,0.00
2022-12-13T00:42:24.107Z,0.00
2022-12-13T00:43:24.207Z,0.00
2022-12-13T00:44:24.564Z,0.00
2022-12-13T00:45:24.018Z,0.00
2022-12-13T00:46:24.231Z,0.00
2022-12-13T00:47:24.740Z,0.00
2022-12-13T00:48:24.355Z,0.00
2022-12-13T00:49:24.140Z,0.00
2022-12-13T00:50:24.001Z,0.00
2022-12-13T00:51:23.988Z,0.00
2022-12-13T00:52:24.062Z,0.00
2022-12-13T00:53:23.964Z,0.00
2022-12-13T00:54:24.264Z,0.00
2022-12-13T00:55:24.812Z,0.00
2022-12-13T00:56:23.956Z,0.00
2022-12-13T00:57:23.983Z,0.00
2022-12-13T00:58:23.926Z,0.00
2022-12-13T00:59:23.943Z,0.00
2022-12-13T01:00:23.883Z,0.00
2022-12-13T01:01:23.927Z,0.00
2022-12-13T01:02:23.920Z,0.00
2022-12-13T01:03:23.782Z,0.00
2022-12-13T01:04:23.956Z,0.00
2022-12-13T01:05:47.513Z,0.00
2022-12-13T01:06:24.727Z,0.00
2022-12-13T01:07:23.779Z,0.00
2022-12-13T01:08:24.076Z,0.00
2022-12-13T01:09:23.799Z,0.00
2022-12-13T01:10:23.741Z,0.00
2022-12-13T01:11:23.631Z,0.00
2022-12-13T01:12:23.690Z,0.00
2022-12-13T01:13:23.688Z,0.00
2022-12-13T01:14:23.646Z,0.00
2022-12-13T01:15:23.595Z,0.00
2022-12-13T01:16:23.754Z,0.00
2022-12-13T01:17:23.577Z,0.00
2022-12-13T01:18:23.708Z,0.00
2022-12-13T01:19:23.513Z,0.00
2022-12-13T01:20:23.534Z,0.00
2022-12-13T01:21:23.830Z,0.00
2022-12-13T01:22:23.551Z,0.00
2022-12-13T01:23:23.494Z,0.00
2022-12-13T01:24:23.495Z,0.00
2022-12-13T01:25:23.450Z,0.00
2022-12-13T01:26:23.495Z,0.00
2022-12-13T01:27:23.578Z,0.00
2022-12-13T01:28:23.466Z,0.00
2022-12-13T01:29:23.390Z,0.00
2022-12-13T01:30:23.390Z,0.00
2022-12-13T01:31:23.394Z,0.00
2022-12-13T01:32:23.365Z,0.00
2022-12-13T01:33:23.508Z,0.00
2022-12-13T01:34:26.678Z,0.00
2022-12-13T01:35:23.325Z,0.00
2022-12-13T01:36:27.683Z,0.00
2022-12-13T01:37:26.101Z,0.00
2022-12-13T01:38:26.200Z,0.00
2022-12-13T01:39:26.504Z,0.00
2022-12-13T01:40:26.549Z,0.00
2022-12-13T01:41:27.192Z,0.00
2022-12-13T01:42:23.230Z,0.00
2022-12-13T01:43:24.160Z,0.00
2022-12-13T01:44:23.220Z,0.00
2022-12-13T01:45:23.360Z,0.00
2022-12-13T01:46:23.249Z,0.00
2022-12-13T01:47:23.128Z,0.00
2022-12-13T01:48:23.247Z,0.00
2022-12-13T01:49:23.116Z,0.00
2022-12-13T01:50:23.110Z,0.00
2022-12-13T01:51:23.284Z,0.00
2022-12-13T01:52:23.125Z,0.00
2022-12-13T01:53:23.127Z,0.00
2022-12-13T01:54:23.046Z,0.00
2022-12-13T01:55:23.072Z,0.00
2022-12-13T01:56:23.037Z,0.00
2022-12-13T01:57:23.172Z,0.00
2022-12-13T01:58:23.056Z,0.00
2022-12-13T01:59:22.958Z,0.00
2022-12-13T02:00:22.998Z,0.00
2022-12-13T02:01:23.737Z,0.00
2022-12-13T02:02:22.963Z,0.00
2022-12-13T02:03:23.075Z,0.00
2022-12-13T02:04:22.970Z,0.00
2022-12-13T02:05:23.016Z,0.00
2022-12-13T02:06:22.903Z,0.00
2022-12-13T02:07:23.699Z,0.00
2022-12-13T02:08:23.010Z,0.00
2022-12-13T02:09:22.963Z,0.00
2022-12-13T02:10:22.889Z,0.00
2022-12-13T02:11:22.854Z,0.00
2022-12-13T02:12:22.840Z,0.00
2022-12-13T02:13:23.845Z,0.00
2022-12-13T02:14:22.800Z,0.00
2022-12-13T02:15:22.892Z,0.00
2022-12-13T02:16:23.177Z,0.00
2022-12-13T02:17:22.787Z,0.00
2022-12-13T02:18:22.723Z,0.00
2022-12-13T02:19:23.613Z,0.00
2022-12-13T02:20:22.699Z,0.00
2022-12-13T02:21:23.024Z,0.00
2022-12-13T02:22:22.757Z,0.00
2022-12-13T02:23:22.684Z,0.00
2022-12-13T02:24:22.626Z,0.00
2022-12-13T02:25:22.625Z,0.00
2022-12-13T02:26:26.297Z,0.00
2022-12-13T02:27:30.776Z,0.00
2022-12-13T02:28:31.779Z,0.00
2022-12-13T02:29:30.633Z,0.00
2022-12-13T02:30:23.544Z,0.00
2022-12-13T02:31:23.338Z,0.00
2022-12-13T02:32:22.719Z,0.00
2022-12-13T02:33:22.579Z,0.00
2022-12-13T02:34:22.525Z,0.00
2022-12-13T02:35:22.488Z,0.00
2022-12-13T02:36:22.457Z,0.00
2022-12-13T02:37:22.416Z,0.00
2022-12-13T02:38:24.878Z,0.00
2022-12-13T02:39:30.151Z,0.00
2022-12-13T02:40:23.434Z,0.00
2022-12-13T02:41:22.446Z,0.00
2022-12-13T02:42:22.421Z,0.00
2022-12-13T02:43:22.356Z,0.00
2022-12-13T02:44:23.339Z,0.00
2022-12-13T02:45:23.004Z,0.00
2022-12-13T02:46:22.509Z,0.00
2022-12-13T02:47:22.767Z,0.00
2022-12-13T02:48:22.281Z,0.00
2022-12-13T02:49:22.288Z,0.00
2022-12-13T02:50:23.590Z,0.00
2022-12-13T02:51:22.390Z,0.00
2022-12-13T02:52:22.832Z,0.00
2022-12-13T02:53:22.201Z,0.00
2022-12-13T02:54:22.212Z,0.00
2022-12-13T02:55:27.820Z,0.00
2022-12-13T02:56:23.340Z,0.00
2022-12-13T02:57:22.128Z,0.00
2022-12-13T02:58:22.283Z,0.00
2022-12-13T02:59:22.133Z,0.00
2022-12-13T03:00:22.182Z,0.00
2022-12-13T03:01:28.016Z,0.00
2022-12-13T03:02:23.332Z,0.00
2022-12-13T03:03:23.267Z,0.00
2022-12-13T03:04:26.221Z,0.00
2022-12-13T03:05:22.807Z,0.00
2022-12-13T03:06:23.021Z,0.00
2022-12-13T03:07:22.384Z,0.00
2022-12-13T03:08:22.252Z,0.00
2022-12-13T03:09:22.025Z,0.00
2022-12-13T03:10:22.294Z,0.00
2022-12-13T03:11:21.942Z,0.00
2022-12-13T03:12:22.705Z,0.00
2022-12-13T03:13:21.909Z,0.00
2022-12-13T03:14:22.011Z,0.00
2022-12-13T03:15:21.945Z,0.00
2022-12-13T03:16:22.804Z,0.00
2022-12-13T03:17:21.884Z,0.00
2022-12-13T03:18:21.897Z,0.00
2022-12-13T03:19:21.824Z,0.00
2022-12-13T03:20:22.699Z,0.00
2022-12-13T03:21:21.834Z,0.00
2022-12-13T03:22:21.822Z,0.00
2022-12-13T03:23:21.773Z,0.00
2022-12-13T03:24:21.783Z,0.00
2022-12-13T03:25:32.035Z,0.00
2022-12-13T03:26:23.158Z,0.00
2022-12-13T03:27:21.731Z,0.00
2022-12-13T03:28:21.709Z,0.00
2022-12-13T03:29:23.389Z,0.00
2022-12-13T03:30:21.769Z,0.00
2022-12-13T03:31:21.685Z,0.00
2022-12-13T03:32:21.786Z,0.00
2022-12-13T03:33:21.694Z,0.00
2022-12-13T03:34:22.979Z,0.00
2022-12-13T03:35:23.016Z,0.00
2022-12-13T03:36:21.873Z,0.00
2022-12-13T03:37:22.358Z,0.00
2022-12-13T03:38:23.361Z,0.00
2022-12-13T03:39:21.593Z,0.00
2022-12-13T03:40:21.564Z,0.00
2022-12-13T03:41:21.526Z,0.00
2022-12-13T03:42:21.515Z,0.00
2022-12-13T03:43:22.477Z,0.00
2022-12-13T03:44:21.928Z,0.00
2022-12-13T03:45:21.483Z,0.00
2022-12-13T03:46:21.519Z,0.00
2022-12-13T03:47:21.699Z,0.00
2022-12-13T03:48:23.450Z,0.00
2022-12-13T03:49:21.441Z,0.00
2022-12-13T03:50:26.216Z,0.00
2022-12-13T03:51:22.386Z,0.00
2022-12-13T03:52:22.138Z,0.00
2022-12-13T03:53:21.970Z,0.00
2022-12-13T03:54:22.400Z,0.00
2022-12-13T03:55:21.365Z,0.00
2022-12-13T03:56:21.380Z,0.00
2022-12-13T03:57:21.272Z,0.00
2022-12-13T03:58:21.401Z,0.00
2022-12-13T03:59:21.298Z,0.00
2022-12-13T04:00:21.284Z,0.00
2022-12-13T04:01:22.059Z,0.00
2022-12-13T04:02:30.763Z,0.00
2022-12-13T04:03:22.435Z,0.00
2022-12-13T04:04:21.227Z,0.00
2022-12-13T04:05:21.173Z,0.00
2022-12-13T04:06:22.131Z,0.00
2022-12-13T04:07:22.294Z,0.00
2022-12-13T04:08:22.375Z,0.00
2022-12-13T04:09:21.388Z,0.00
2022-12-13T04:10:25.697Z,0.00
2022-12-13T04:11:22.086Z,0.00
2022-12-13T04:12:21.092Z,0.00
2022-12-13T04:13:21.074Z,0.00
2022-12-13T04:14:22.403Z,0.00
2022-12-13T04:15:21.103Z,0.00
2022-12-13T04:16:21.102Z,0.00
2022-12-13T04:17:21.016Z,0.00
2022-12-13T04:18:21.008Z,0.00
2022-12-13T04:19:22.869Z,0.00
2022-12-13T04:20:21.037Z,0.00
2022-12-13T04:21:21.111Z,0.00
2022-12-13T04:22:24.898Z,0.00
2022-12-13T04:23:20.929Z,0.00
2022-12-13T04:24:20.976Z,0.00
2022-12-13T04:25:20.925Z,0.00
2022-12-13T04:26:20.942Z,0.00
2022-12-13T04:27:21.337Z,0.00
2022-12-13T04:28:22.358Z,0.00
2022-12-13T04:29:20.846Z,0.00
2022-12-13T04:30:20.850Z,0.00
2022-12-13T04:31:20.913Z,0.00
2022-12-13T04:32:26.979Z,0.00
2022-12-13T04:33:22.175Z,0.00
2022-12-13T04:34:20.809Z,0.00
2022-12-13T04:35:20.736Z,0.00
2022-12-13T04:36:31.975Z,0.00
2022-12-13T04:37:22.500Z,0.00
2022-12-13T04:38:20.834Z,0.00
2022-12-13T04:39:22.288Z,0.00
2022-12-13T04:40:21.855Z,0.00
2022-12-13T04:41:20.711Z,0.00
2022-12-13T04:42:21.412Z,0.00
2022-12-13T04:43:20.709Z,0.00
2022-12-13T04:44:28.657Z,0.00
2022-12-13T04:45:21.917Z,0.00
2022-12-13T04:46:20.723Z,0.00
2022-12-13T04:47:20.602Z,0.00
2022-12-13T04:48:30.461Z,0.00
2022-12-13T04:49:21.660Z,0.00
2022-12-13T04:50:20.540Z,0.00
2022-12-13T04:51:20.834Z,0.00
2022-12-13T04:52:22.226Z,0.00
2022-12-13T04:53:20.560Z,0.00
2022-12-13T04:54:23.931Z,0.00
2022-12-13T04:55:20.532Z,0.00
2022-12-13T04:56:20.479Z,0.00
2022-12-13T04:57:20.728Z,0.00
2022-12-13T04:58:23.075Z,0.00
2022-12-13T04:59:20.486Z,0.00
2022-12-13T05:00:20.404Z,0.00
2022-12-13T05:01:20.586Z,0.00
2022-12-13T05:02:23.721Z,0.00
2022-12-13T05:03:21.115Z,0.00
2022-12-13T05:04:20.355Z,0.00
2022-12-13T05:05:20.364Z,0.00
2022-12-13T05:06:26.641Z,0.00
2022-12-13T05:07:21.557Z,0.00
2022-12-13T05:08:20.352Z,0.00
2022-12-13T05:09:20.478Z,0.00
2022-12-13T05:10:34.130Z,0.00
2022-12-13T05:11:22.947Z,0.00
2022-12-13T05:12:22.784Z,0.00
2022-12-13T05:13:20.343Z,0.00
2022-12-13T05:14:23.407Z,0.00
2022-12-13T05:15:20.417Z,0.00
2022-12-13T05:16:20.319Z,0.00
2022-12-13T05:17:20.215Z,0.00
2022-12-13T05:18:20.178Z,0.00
2022-12-13T05:19:20.233Z,0.00
2022-12-13T05:20:20.885Z,0.00
2022-12-13T05:21:20.357Z,0.00
2022-12-13T05:22:21.215Z,0.00
2022-12-13T05:23:22.875Z,0.00
2022-12-13T05:24:20.071Z,0.00
2022-12-13T05:25:20.141Z,0.00
2022-12-13T05:26:20.031Z,0.00
2022-12-13T05:27:25.048Z,0.00
2022-12-13T05:28:28.192Z,0.00
2022-12-13T05:29:21.074Z,0.00
2022-12-13T05:30:20.999Z,0.00
2022-12-13T05:31:23.127Z,0.00
2022-12-13T05:32:20.012Z,0.00
2022-12-13T05:33:20.103Z,0.00
2022-12-13T05:34:19.926Z,0.00
2022-12-13T05:35:21.769Z,0.00
2022-12-13T05:36:19.887Z,0.00
2022-12-13T05:37:20.440Z,0.00
2022-12-13T05:38:19.870Z,0.00
2022-12-13T05:39:27.886Z,0.00
2022-12-13T05:40:20.837Z,0.00
2022-12-13T05:41:19.863Z,0.00
2022-12-13T05:42:19.816Z,0.00
2022-12-13T05:43:22.001Z,0.00
2022-12-13T05:44:19.761Z,0.00
2022-12-13T05:45:19.963Z,0.00
2022-12-13T05:46:19.828Z,0.00
2022-12-13T05:47:19.789Z,0.00
2022-12-13T05:48:24.936Z,0.00
2022-12-13T05:49:19.845Z,0.00
2022-12-13T05:50:19.695Z,0.00
2022-12-13T05:51:20.444Z,0.00
2022-12-13T05:52:19.813Z,0.00
2022-12-13T05:53:30.737Z,0.00
2022-12-13T05:54:20.662Z,0.00
2022-12-13T05:55:19.936Z,0.00
2022-12-13T05:56:23.225Z,0.00
2022-12-13T05:57:19.878Z,0.00
2022-12-13T05:58:23.248Z,0.00
2022-12-13T05:59:19.636Z,0.00
2022-12-13T06:00:28.544Z,0.00
2022-12-13T06:01:20.619Z,0.00
2022-12-13T06:02:21.689Z,0.00
2022-12-13T06:03:19.732Z,0.00
2022-12-13T06:04:22.139Z,0.00
2022-12-13T06:05:19.560Z,0.00
2022-12-13T06:06:19.521Z,0.00
2022-12-13T06:07:19.599Z,0.00
2022-12-13T06:08:24.757Z,0.00
2022-12-13T06:09:20.599Z,0.00
2022-12-13T06:10:21.932Z,0.00
2022-12-13T06:11:31.325Z,0.00
2022-12-13T06:12:31.861Z,0.00
2022-12-13T06:13:21.744Z,0.00
2022-12-13T06:14:22.480Z,0.00
2022-12-13T06:15:22.004Z,0.00
2022-12-13T06:16:22.481Z,0.00
2022-12-13T06:17:21.571Z,0.00
2022-12-13T06:18:19.337Z,0.00
2022-12-13T06:19:19.392Z,0.00
2022-12-13T06:20:23.472Z,0.00
2022-12-13T06:21:19.265Z,0.00
2022-12-13T06:22:19.703Z,0.00
2022-12-13T06:23:19.272Z,0.00
2022-12-13T06:24:19.251Z,0.00
2022-12-13T06:25:30.741Z,0.00
2022-12-13T06:26:20.293Z,4.00
2022-12-13T06:27:19.235Z,0.00
2022-12-13T06:28:19.145Z,0.00
2022-12-13T06:29:23.575Z,0.00
2022-12-13T06:30:20.277Z,0.00
2022-12-13T06:31:19.151Z,0.00
2022-12-13T06:32:19.083Z,0.00
2022-12-13T06:33:23.221Z,0.00
2022-12-13T06:34:19.092Z,0.00
2022-12-13T06:35:27.115Z,0.00
2022-12-13T06:36:20.133Z,0.00
2022-12-13T06:37:20.094Z,0.00
2022-12-13T06:38:21.945Z,0.00
2022-12-13T06:39:20.767Z,0.00
2022-12-13T06:40:23.037Z,0.00
2022-12-13T06:41:19.004Z,0.00
2022-12-13T06:42:21.387Z,0.00
2022-12-13T06:43:19.011Z,0.00
2022-12-13T06:44:18.969Z,4.00
2022-12-13T06:45:18.957Z,0.00
2022-12-13T06:46:18.934Z,0.00
2022-12-13T06:47:31.821Z,0.00
2022-12-13T06:48:20.427Z,0.00
2022-12-13T06:49:18.874Z,0.00
2022-12-13T06:50:18.953Z,0.00
2022-12-13T06:51:22.883Z,0.00
2022-12-13T06:52:19.959Z,0.00
2022-12-13T06:53:19.036Z,0.00
2022-12-13T06:54:21.940Z,0.00
2022-12-13T06:55:23.544Z,4.00
2022-12-13T06:56:19.791Z,4.00
2022-12-13T06:57:18.786Z,4.00
2022-12-13T06:58:18.746Z,4.00
2022-12-13T06:59:18.895Z,4.00
2022-12-13T07:00:22.336Z,4.00
2022-12-13T07:01:24.218Z,4.00
2022-12-13T07:02:25.477Z,0.00
2022-12-13T07:03:19.773Z,0.00
2022-12-13T07:04:29.787Z,4.00
2022-12-13T07:05:19.711Z,4.00
2022-12-13T07:06:18.647Z,4.00
2022-12-13T07:07:18.843Z,8.00
2022-12-13T07:08:22.443Z,4.00
2022-12-13T07:09:18.803Z,4.00
2022-12-13T07:10:21.880Z,8.00
2022-12-13T07:11:18.975Z,4.00
2022-12-13T07:12:18.641Z,8.00
2022-12-13T07:13:18.568Z,8.00
2022-12-13T07:14:18.534Z,4.00
2022-12-13T07:15:18.517Z,8.00
2022-12-13T07:16:18.536Z,8.00
2022-12-13T07:17:34.078Z,8.00
2022-12-13T07:18:19.458Z,8.00
2022-12-13T07:19:23.572Z,12.00
2022-12-13T07:20:19.469Z,12.00
2022-12-13T07:21:21.410Z,8.00
2022-12-13T07:22:18.561Z,12.00
2022-12-13T07:23:18.509Z,12.00
2022-12-13T07:24:19.362Z,12.00
2022-12-13T07:25:27.683Z,12.00
2022-12-13T07:26:19.644Z,16.00
2022-12-13T07:27:18.667Z,12.00
2022-12-13T07:28:18.326Z,16.00
2022-12-13T07:29:22.798Z,16.00
2022-12-13T07:30:18.314Z,16.00
2022-12-13T07:31:18.422Z,20.00
2022-12-13T07:32:18.277Z,16.00
2022-12-13T07:33:22.624Z,20.00
2022-12-13T07:34:18.226Z,20.00
2022-12-13T07:35:18.315Z,16.00
2022-12-13T07:36:18.240Z,20.00
2022-12-13T07:37:29.809Z,20.00
2022-12-13T07:38:19.186Z,20.00
2022-12-13T07:39:18.223Z,20.00
2022-12-13T07:40:18.151Z,20.00
2022-12-13T07:41:23.437Z,20.00
2022-12-13T07:42:19.153Z,24.00
2022-12-13T07:43:18.691Z,20.00
2022-12-13T07:44:18.085Z,24.00
2022-12-13T07:45:18.157Z,24.00
2022-12-13T07:46:21.444Z,24.00
2022-12-13T07:47:19.365Z,24.00
2022-12-13T07:48:18.040Z,28.00
2022-12-13T07:49:19.654Z,28.00
2022-12-13T07:50:25.126Z,28.00
2022-12-13T07:51:19.032Z,32.00
2022-12-13T07:52:18.417Z,28.00
2022-12-13T07:53:18.507Z,32.00
2022-12-13T07:54:18.002Z,28.00
2022-12-13T07:55:18.029Z,32.00
2022-12-13T07:56:18.954Z,32.00
2022-12-13T07:57:17.941Z,32.00
2022-12-13T07:58:17.882Z,32.00
2022-12-13T07:59:28.330Z,32.00
2022-12-13T08:00:18.881Z,40.00
2022-12-13T08:01:18.821Z,40.00
2022-12-13T08:02:17.921Z,40.00
2022-12-13T08:03:24.938Z,40.00
2022-12-13T08:04:19.096Z,44.00
2022-12-13T08:05:27.162Z,40.00
2022-12-13T08:06:18.788Z,40.00
2022-12-13T08:07:17.904Z,44.00
2022-12-13T08:08:18.238Z,44.00
2022-12-13T08:09:17.776Z,44.00
2022-12-13T08:10:17.988Z,48.00
2022-12-13T08:11:17.820Z,52.00
2022-12-13T08:12:22.836Z,52.00
2022-12-13T08:13:19.069Z,52.00
2022-12-13T08:14:17.675Z,52.00
2022-12-13T08:15:17.704Z,48.00
2022-12-13T08:16:27.472Z,48.00
2022-12-13T08:17:18.733Z,48.00
2022-12-13T08:18:17.596Z,48.00
2022-12-13T08:19:17.977Z,52.00
2022-12-13T08:20:21.912Z,56.00
2022-12-13T08:21:52.687Z,56.00
2022-12-13T08:22:24.174Z,60.00
2022-12-13T08:23:17.607Z,60.00
2022-12-13T08:24:17.518Z,60.00
2022-12-13T08:25:17.554Z,60.00
2022-12-13T08:26:17.583Z,56.00
2022-12-13T08:27:17.727Z,60.00
2022-12-13T08:28:18.636Z,60.00
2022-12-13T08:29:23.088Z,64.00
2022-12-13T08:30:22.784Z,64.00
2022-12-13T08:31:17.684Z,64.00
2022-12-13T08:32:18.152Z,68.00
2022-12-13T08:33:17.547Z,64.00
2022-12-13T08:34:18.179Z,64.00
2022-12-13T08:35:17.469Z,64.00
2022-12-13T08:36:17.359Z,64.00
2022-12-13T08:37:18.642Z,68.00
2022-12-13T08:38:22.832Z,64.00
2022-12-13T08:39:18.381Z,68.00
2022-12-13T08:40:17.606Z,68.00
2022-12-13T08:41:17.333Z,68.00
2022-12-13T08:42:19.880Z,72.00
2022-12-13T08:43:17.539Z,72.00
2022-12-13T08:44:18.246Z,68.00
2022-12-13T08:45:17.370Z,76.00
2022-12-13T08:46:18.029Z,76.00
2022-12-13T08:47:23.311Z,76.00
2022-12-13T08:48:18.574Z,80.00
2022-12-13T08:49:17.445Z,80.00
2022-12-13T08:50:17.172Z,84.00
2022-12-13T08:51:24.568Z,80.00
2022-12-13T08:52:18.324Z,84.00
2022-12-13T08:53:28.106Z,84.00
2022-12-13T08:54:31.688Z,84.00
2022-12-13T08:55:20.025Z,84.00
2022-12-13T08:56:18.155Z,84.00
2022-12-13T08:57:17.659Z,88.00
2022-12-13T08:58:17.061Z,92.00
2022-12-13T08:59:17.100Z,92.00
2022-12-13T09:00:17.060Z,96.00
2022-12-13T09:01:17.042Z,104.00
2022-12-13T09:02:17.304Z,104.00
2022-12-13T09:03:16.981Z,104.00
2022-12-13T09:04:17.031Z,104.00
2022-12-13T09:05:34.416Z,104.00
2022-12-13T09:06:17.953Z,100.00
2022-12-13T09:07:17.450Z,100.00
2022-12-13T09:08:24.804Z,100.00
2022-12-13T09:09:17.948Z,96.00
2022-12-13T09:10:26.671Z,92.00
2022-12-13T09:11:23.828Z,96.00
2022-12-13T09:12:30.815Z,96.00
2022-12-13T09:13:31.305Z,100.00
2022-12-13T09:14:17.892Z,104.00
2022-12-13T09:15:22.400Z,100.00
2022-12-13T09:16:23.706Z,96.00
2022-12-13T09:17:24.369Z,92.00
2022-12-13T09:18:24.083Z,92.00
2022-12-13T09:19:25.072Z,88.00
2022-12-13T09:20:41.311Z,88.00
2022-12-13T09:21:22.524Z,92.00
2022-12-13T09:22:17.811Z,92.00
2022-12-13T09:23:23.573Z,96.00
2022-12-13T09:24:24.039Z,96.00
2022-12-13T09:25:24.290Z,96.00
2022-12-13T09:26:17.677Z,100.00
2022-12-13T09:27:27.692Z,100.00
2022-12-13T09:28:17.688Z,100.00
2022-12-13T09:29:16.606Z,100.00
2022-12-13T09:30:16.630Z,100.00
2022-12-13T09:31:16.674Z,104.00
2022-12-13T09:32:16.781Z,108.00
2022-12-13T09:33:28.638Z,108.00
2022-12-13T09:34:17.593Z,112.00
2022-12-13T09:35:16.542Z,112.00
2022-12-13T09:36:17.263Z,112.00
2022-12-13T09:37:22.899Z,116.00
2022-12-13T09:38:17.627Z,112.00
2022-12-13T09:39:17.411Z,108.00
2022-12-13T09:40:25.913Z,108.00
2022-12-13T09:41:19.452Z,108.00
2022-12-13T09:42:16.534Z,104.00
2022-12-13T09:43:22.635Z,108.00
2022-12-13T09:44:32.095Z,108.00
2022-12-13T09:45:21.864Z,108.00
2022-12-13T09:46:22.611Z,108.00
2022-12-13T09:47:23.793Z,108.00
2022-12-13T09:48:22.836Z,108.00
2022-12-13T09:49:23.135Z,112.00
2022-12-13T09:50:17.368Z,112.00
2022-12-13T09:51:27.284Z,112.00
2022-12-13T09:52:21.460Z,108.00
2022-12-13T09:53:21.333Z,100.00
2022-12-13T09:54:17.455Z,112.00
2022-12-13T09:55:16.244Z,108.00
2022-12-13T09:56:16.334Z,108.00
2022-12-13T09:57:32.003Z,104.00
2022-12-13T09:58:17.220Z,108.00
2022-12-13T09:59:16.177Z,108.00
2022-12-13T10:00:16.242Z,112.00
2022-12-13T10:01:23.061Z,116.00
2022-12-13T10:02:17.475Z,120.00
2022-12-13T10:03:16.209Z,96.00
2022-12-13T10:04:16.282Z,120.00
2022-12-13T10:05:22.334Z,124.00
2022-12-13T10:06:22.918Z,128.00
2022-12-13T10:07:17.354Z,128.00
2022-12-13T10:08:16.611Z,132.00
2022-12-13T10:09:17.054Z,132.00
2022-12-13T10:10:16.119Z,132.00
2022-12-13T10:11:16.131Z,132.00
2022-12-13T10:12:16.242Z,136.00
2022-12-13T10:13:16.081Z,140.00
2022-12-13T10:14:16.033Z,140.00
2022-12-13T10:15:22.365Z,140.00
2022-12-13T10:16:23.345Z,140.00
2022-12-13T10:17:17.016Z,136.00
2022-12-13T10:18:15.920Z,132.00
2022-12-13T10:19:29.567Z,132.00
2022-12-13T10:20:18.051Z,132.00
2022-12-13T10:21:15.911Z,132.00
2022-12-13T10:22:16.196Z,128.00
2022-12-13T10:23:35.625Z,124.00
2022-12-13T10:24:29.024Z,120.00
2022-12-13T10:25:16.952Z,116.00
2022-12-13T10:26:24.576Z,116.00
2022-12-13T10:27:17.057Z,116.00
2022-12-13T10:28:15.937Z,116.00
2022-12-13T10:29:15.869Z,116.00
2022-12-13T10:30:15.806Z,116.00
2022-12-13T10:31:15.846Z,116.00
2022-12-13T10:32:15.835Z,112.00
2022-12-13T10:33:15.907Z,104.00
2022-12-13T10:34:17.078Z,104.00
2022-12-13T10:35:15.851Z,108.00
2022-12-13T10:36:16.013Z,108.00
2022-12-13T10:37:15.786Z,108.00
2022-12-13T10:38:15.931Z,108.00
2022-12-13T10:39:15.608Z,108.00
2022-12-13T10:40:16.404Z,112.00
2022-12-13T10:41:16.574Z,112.00
2022-12-13T10:42:22.625Z,112.00
2022-12-13T10:43:16.670Z,112.00
2022-12-13T10:44:15.611Z,116.00
2022-12-13T10:45:15.552Z,124.00
2022-12-13T10:46:15.595Z,124.00
2022-12-13T10:47:17.082Z,128.00
2022-12-13T10:48:15.521Z,132.00
2022-12-13T10:49:16.308Z,140.00
2022-12-13T10:50:15.505Z,144.00
2022-12-13T10:51:15.518Z,144.00
2022-12-13T10:52:15.646Z,144.00
2022-12-13T10:53:16.425Z,144.00
2022-12-13T10:54:15.424Z,136.00
2022-12-13T10:55:23.045Z,132.00
2022-12-13T10:56:23.101Z,132.00
2022-12-13T10:57:17.666Z,124.00
2022-12-13T10:58:15.503Z,128.00
2022-12-13T10:59:17.695Z,124.00
2022-12-13T11:00:15.509Z,128.00
2022-12-13T11:01:15.450Z,124.00
2022-12-13T11:02:15.394Z,120.00
2022-12-13T11:03:15.347Z,116.00
2022-12-13T11:04:15.496Z,116.00
2022-12-13T11:05:15.228Z,120.00
2022-12-13T11:06:16.358Z,124.00
2022-12-13T11:07:15.396Z,128.00
2022-12-13T11:08:15.313Z,128.00
2022-12-13T11:09:22.838Z,132.00
2022-12-13T11:10:16.410Z,132.00
2022-12-13T11:11:15.229Z,132.00
2022-12-13T11:12:15.242Z,128.00
2022-12-13T11:13:15.143Z,124.00
2022-12-13T11:14:15.149Z,120.00
2022-12-13T11:15:15.182Z,120.00
2022-12-13T11:16:15.207Z,116.00
2022-12-13T11:17:15.136Z,116.00
2022-12-13T11:18:15.089Z,124.00
2022-12-13T11:19:15.331Z,124.00
2022-12-13T11:20:15.219Z,124.00
2022-12-13T11:21:16.008Z,128.00
2022-12-13T11:22:15.139Z,124.00
2022-12-13T11:23:15.041Z,124.00
2022-12-13T11:24:15.971Z,128.00
2022-12-13T11:25:15.985Z,132.00
2022-12-13T11:26:15.028Z,132.00
2022-12-13T11:27:14.996Z,128.00
2022-12-13T11:28:26.920Z,124.00
2022-12-13T11:29:15.922Z,124.00
2022-12-13T11:30:15.005Z,120.00
2022-12-13T11:31:14.908Z,124.00
2022-12-13T11:32:15.452Z,132.00
2022-12-13T11:33:15.895Z,132.00
2022-12-13T11:34:14.996Z,136.00
2022-12-13T11:35:14.885Z,128.00
2022-12-13T11:36:14.849Z,132.00
2022-12-13T11:37:15.021Z,132.00
2022-12-13T11:38:15.115Z,132.00
2022-12-13T11:39:14.920Z,124.00
2022-12-13T11:40:14.919Z,124.00
2022-12-13T11:41:31.939Z,124.00
2022-12-13T11:42:15.919Z,128.00
2022-12-13T11:43:14.711Z,128.00
2022-12-13T11:44:14.741Z,124.00
2022-12-13T11:45:23.020Z,124.00
2022-12-13T11:46:15.757Z,120.00
2022-12-13T11:47:14.832Z,116.00
2022-12-13T11:48:14.695Z,120.00
2022-12-13T11:49:14.753Z,124.00
2022-12-13T11:50:20.474Z,132.00
2022-12-13T11:51:15.641Z,144.00
2022-12-13T11:52:15.347Z,148.00
2022-12-13T11:53:14.659Z,152.00
2022-12-13T11:54:14.612Z,156.00
2022-12-13T11:55:15.572Z,152.00
2022-12-13T11:56:14.562Z,148.00
2022-12-13T11:57:14.636Z,148.00
2022-12-13T11:58:16.539Z,148.00
2022-12-13T11:59:23.770Z,148.00
2022-12-13T12:00:15.520Z,148.00
2022-12-13T12:01:15.521Z,140.00
2022-12-13T12:02:16.745Z,136.00
2022-12-13T12:03:15.452Z,136.00
2022-12-13T12:04:14.654Z,136.00
2022-12-13T12:05:14.411Z,128.00
2022-12-13T12:06:14.441Z,128.00
2022-12-13T12:07:32.302Z,124.00
2022-12-13T12:08:32.344Z,132.00
2022-12-13T12:09:15.354Z,136.00
2022-12-13T12:10:14.361Z,144.00
2022-12-13T12:11:14.306Z,148.00
2022-12-13T12:12:14.328Z,148.00
2022-12-13T12:13:15.603Z,152.00
2022-12-13T12:14:14.374Z,152.00
2022-12-13T12:15:15.519Z,148.00
2022-12-13T12:16:14.324Z,144.00
2022-12-13T12:17:14.231Z,140.00
2022-12-13T12:18:14.267Z,140.00
2022-12-13T12:19:14.403Z,140.00
2022-12-13T12:20:14.445Z,136.00
2022-12-13T12:21:16.169Z,132.00
2022-12-13T12:22:15.405Z,132.00
2022-12-13T12:23:14.164Z,128.00
2022-12-13T12:24:14.361Z,128.00
2022-12-13T12:25:14.146Z,128.00
2022-12-13T12:26:14.182Z,132.00
2022-12-13T12:27:14.480Z,136.00
2022-12-13T12:28:15.136Z,144.00
2022-12-13T12:29:14.070Z,144.00
2022-12-13T12:30:14.100Z,144.00
2022-12-13T12:31:15.156Z,144.00
2022-12-13T12:32:14.080Z,148.00
2022-12-13T12:33:13.997Z,156.00
2022-12-13T12:34:14.748Z,156.00
2022-12-13T12:35:14.039Z,156.00
2022-12-13T12:36:14.013Z,156.00
2022-12-13T12:37:14.098Z,156.00
2022-12-13T12:38:13.976Z,152.00
2022-12-13T12:39:13.947Z,152.00
2022-12-13T12:40:13.938Z,152.00
2022-12-13T12:41:16.450Z,148.00
2022-12-13T12:42:13.927Z,152.00
2022-12-13T12:43:16.034Z,148.00
2022-12-13T12:44:13.924Z,148.00
2022-12-13T12:45:27.098Z,144.00
2022-12-13T12:46:14.876Z,144.00
2022-12-13T12:48:50.837Z,132.00
2022-12-13T12:49:14.969Z,128.00
2022-12-13T12:50:13.786Z,132.00
2022-12-13T12:51:13.886Z,136.00
2022-12-13T12:52:13.994Z,132.00
2022-12-13T12:53:13.746Z,128.00
2022-12-13T12:54:14.434Z,124.00
2022-12-13T12:55:13.698Z,120.00
2022-12-13T12:56:13.724Z,112.00
2022-12-13T12:57:13.840Z,112.00
2022-12-13T12:58:13.681Z,112.00
2022-12-13T12:59:13.622Z,116.00
2022-12-13T13:00:13.674Z,116.00
2022-12-13T13:01:13.663Z,116.00